createdAt,value
2023-05-11T00:02:10.650Z,51.85
2023-05-11T00:04:41.699Z,51.85
2023-05-11T00:07:12.557Z,51.97
2023-05-11T00:09:43.426Z,51.99
2023-05-11T00:12:14.532Z,52.07
2023-05-11T00:14:45.183Z,52.10
2023-05-11T00:17:16.173Z,52.18
2023-05-11T00:19:47.097Z,52.44
2023-05-11T00:22:17.797Z,52.18
2023-05-11T00:24:48.564Z,52.24
2023-05-11T00:27:19.164Z,52.36
2023-05-11T00:29:50.126Z,52.34
2023-05-11T00:32:20.941Z,52.47
2023-05-11T00:34:51.761Z,52.50
2023-05-11T00:37:22.341Z,52.56
2023-05-11T00:39:53.107Z,52.58
2023-05-11T00:42:23.969Z,52.79
2023-05-11T00:44:54.591Z,52.74
2023-05-11T00:47:25.342Z,52.72
2023-05-11T00:49:55.940Z,52.70
2023-05-11T00:52:26.986Z,52.73
2023-05-11T00:54:57.792Z,52.77
2023-05-11T00:57:30.717Z,52.76
2023-05-11T01:00:02.030Z,53.04
2023-05-11T01:02:32.881Z,52.88
2023-05-11T01:05:03.686Z,52.86
2023-05-11T01:07:36.682Z,52.91
2023-05-11T01:10:08.084Z,53.04
2023-05-11T01:12:54.812Z,53.03
2023-05-11T01:15:28.296Z,53.04
2023-05-11T01:17:59.748Z,53.13
2023-05-11T01:20:30.953Z,53.10
2023-05-11T01:23:14.599Z,53.12
2023-05-11T01:26:04.559Z,53.34
2023-05-11T01:28:48.661Z,53.22
2023-05-11T01:31:19.355Z,53.45
2023-05-11T01:33:51.444Z,53.52
2023-05-11T01:36:22.466Z,53.60
2023-05-11T01:38:53.395Z,53.63
2023-05-11T01:41:24.055Z,53.57
2023-05-11T01:43:55.558Z,53.53
2023-05-11T01:46:26.959Z,53.91
2023-05-11T01:48:57.800Z,53.79
2023-05-11T01:51:29.329Z,53.87
2023-05-11T01:54:00.047Z,53.96
2023-05-11T01:56:30.888Z,54.05
2023-05-11T01:59:02.188Z,53.97
2023-05-11T02:01:33.496Z,54.07
2023-05-11T02:04:05.962Z,54.24
2023-05-11T02:06:36.885Z,54.14
2023-05-11T02:09:07.801Z,54.20
2023-05-11T02:11:38.412Z,54.36
2023-05-11T02:14:09.198Z,54.41
2023-05-11T02:16:42.207Z,54.41
2023-05-11T02:19:12.917Z,54.47
2023-05-11T02:21:43.850Z,54.64
2023-05-11T02:24:14.887Z,54.46
2023-05-11T02:26:46.291Z,54.38
2023-05-11T02:29:17.312Z,54.34
2023-05-11T02:31:48.900Z,54.63
2023-05-11T02:34:21.131Z,54.50
2023-05-11T02:36:52.451Z,54.66
2023-05-11T02:39:23.588Z,54.62
2023-05-11T02:41:57.363Z,54.59
2023-05-11T02:44:29.034Z,54.81
2023-05-11T02:47:00.546Z,54.64
2023-05-11T02:49:31.540Z,54.62
2023-05-11T02:52:02.378Z,54.88
2023-05-11T02:54:33.863Z,54.77
2023-05-11T02:57:05.007Z,55.03
2023-05-11T02:59:35.535Z,54.96
2023-05-11T03:02:06.655Z,55.29
2023-05-11T03:04:37.701Z,55.22
2023-05-11T03:07:08.361Z,55.41
2023-05-11T03:09:39.053Z,55.53
2023-05-11T03:12:10.413Z,55.57
2023-05-11T03:14:41.208Z,55.50
2023-05-11T03:17:12.490Z,55.63
2023-05-11T03:19:43.070Z,55.62
2023-05-11T03:22:14.418Z,55.79
2023-05-11T03:24:45.225Z,55.84
2023-05-11T03:27:16.749Z,55.81
2023-05-11T03:29:48.136Z,56.16
2023-05-11T03:32:19.878Z,56.26
2023-05-11T03:34:52.233Z,56.23
2023-05-11T03:37:24.166Z,56.20
2023-05-11T03:39:58.127Z,56.14
2023-05-11T03:42:29.414Z,56.35
2023-05-11T03:45:01.174Z,56.35
2023-05-11T03:47:33.043Z,56.29
2023-05-11T03:50:06.220Z,56.38
2023-05-11T03:52:37.281Z,56.50
2023-05-11T03:55:10.125Z,56.49
2023-05-11T03:57:41.166Z,56.45
2023-05-11T04:00:14.373Z,56.68
2023-05-11T04:02:45.316Z,56.61
2023-05-11T04:05:21.365Z,56.91
2023-05-11T04:07:58.687Z,56.80
2023-05-11T04:10:30.136Z,56.75
2023-05-11T04:13:01.100Z,56.80
2023-05-11T04:15:34.564Z,56.83
2023-05-11T04:18:05.639Z,56.88
2023-05-11T04:20:41.161Z,57.01
2023-05-11T04:23:12.421Z,57.00
2023-05-11T04:32:42.230Z,57.16
2023-05-11T04:35:14.129Z,57.03
2023-05-11T04:37:45.039Z,57.25
2023-05-11T04:40:16.108Z,57.18
2023-05-11T04:42:49.206Z,57.29
2023-05-11T04:45:20.865Z,57.48
2023-05-11T04:47:51.822Z,57.26
2023-05-11T04:50:22.753Z,57.31
2023-05-11T04:52:53.503Z,57.65
2023-05-11T04:55:24.196Z,57.38
2023-05-11T04:57:56.422Z,57.55
2023-05-11T05:00:27.204Z,57.32
2023-05-11T05:02:58.081Z,57.43
2023-05-11T05:05:28.658Z,57.59
2023-05-11T05:07:59.437Z,57.47
2023-05-11T05:10:48.197Z,57.34
2023-05-11T05:13:18.555Z,57.24
2023-05-11T05:15:49.297Z,57.24
2023-05-11T05:18:20.102Z,57.39
2023-05-11T05:20:50.806Z,57.58
2023-05-11T05:23:22.206Z,57.56
2023-05-11T05:25:52.855Z,57.65
2023-05-11T05:28:25.741Z,57.33
2023-05-11T05:30:59.188Z,57.39
2023-05-11T05:33:31.249Z,57.40
2023-05-11T05:36:02.122Z,57.56
2023-05-11T05:38:32.815Z,57.50
2023-05-11T05:41:03.831Z,57.45
2023-05-11T05:43:34.600Z,57.60
2023-05-11T05:46:06.314Z,57.35
2023-05-11T05:48:37.251Z,57.56
2023-05-11T05:51:08.383Z,57.43
2023-05-11T05:53:39.581Z,57.46
2023-05-11T05:56:10.764Z,57.37
2023-05-11T05:58:43.461Z,57.15
2023-05-11T06:01:18.824Z,57.22
2023-05-11T06:03:57.025Z,57.20
2023-05-11T06:06:27.911Z,57.19
2023-05-11T06:08:58.696Z,57.19
2023-05-11T06:11:29.566Z,57.15
2023-05-11T06:14:00.406Z,57.27
2023-05-11T06:16:31.262Z,57.16
2023-05-11T06:19:01.961Z,57.12
2023-05-11T06:21:32.746Z,57.01
2023-05-11T06:24:03.690Z,56.74
2023-05-11T06:26:34.481Z,56.77
2023-05-11T06:29:05.416Z,56.83
2023-05-11T06:31:38.849Z,56.69
2023-05-11T06:34:10.671Z,56.57
2023-05-11T06:36:45.181Z,56.41
2023-05-11T06:39:15.831Z,56.02
2023-05-11T06:41:46.521Z,56.09
2023-05-11T06:44:18.545Z,56.00
2023-05-11T06:46:49.389Z,55.76
2023-05-11T06:49:21.670Z,55.73
2023-05-11T06:51:52.358Z,55.67
2023-05-11T06:54:25.100Z,55.67
2023-05-11T06:56:58.533Z,55.47
2023-05-11T06:59:33.129Z,55.46
2023-05-11T07:02:03.799Z,55.34
2023-05-11T07:04:34.627Z,55.21
2023-05-11T07:07:05.462Z,55.17
2023-05-11T07:09:39.492Z,54.88
2023-05-11T07:14:29.256Z,54.49
2023-05-11T07:16:59.792Z,54.10
2023-05-11T07:19:33.525Z,54.05
2023-05-11T07:22:05.951Z,53.86
2023-05-11T07:24:38.213Z,53.70
2023-05-11T07:27:09.110Z,53.72
2023-05-11T07:29:39.842Z,53.87
2023-05-11T07:32:11.155Z,53.79
2023-05-11T07:34:41.765Z,53.75
2023-05-11T07:37:12.677Z,53.83
2023-05-11T07:39:43.571Z,53.56
2023-05-11T07:42:14.508Z,53.51
2023-05-11T07:44:45.463Z,53.19
2023-05-11T07:47:17.582Z,52.92
2023-05-11T07:49:48.736Z,52.85
2023-05-11T07:52:22.779Z,52.81
2023-05-11T07:55:00.245Z,52.48
2023-05-11T07:57:31.185Z,52.51
2023-05-11T08:00:07.482Z,52.36
2023-05-11T08:02:38.687Z,52.25
2023-05-11T08:05:10.473Z,52.27
2023-05-11T08:07:41.786Z,51.88
2023-05-11T08:10:13.077Z,51.93
2023-05-11T08:12:43.775Z,51.97
2023-05-11T08:15:14.642Z,51.61
2023-05-11T08:17:46.254Z,51.46
2023-05-11T08:20:17.233Z,51.33
2023-05-11T08:22:48.098Z,51.01
2023-05-11T08:25:19.234Z,50.75
2023-05-11T08:27:50.083Z,50.57
2023-05-11T08:30:20.978Z,50.57
2023-05-11T08:32:58.637Z,50.52
2023-05-11T08:35:30.305Z,50.21
2023-05-11T08:38:01.439Z,49.86
2023-05-11T08:40:32.269Z,49.79
2023-05-11T08:43:03.082Z,49.22
2023-05-11T08:45:34.396Z,48.99
2023-05-11T08:48:05.763Z,49.51
2023-05-11T08:50:37.170Z,49.23
2023-05-11T08:53:07.991Z,48.83
2023-05-11T08:55:39.134Z,48.34
2023-05-11T08:58:10.055Z,48.28
2023-05-11T09:00:40.877Z,47.97
2023-05-11T09:03:11.689Z,47.85
2023-05-11T09:05:42.675Z,47.65
2023-05-11T09:08:13.839Z,47.39
2023-05-11T09:10:44.984Z,47.26
2023-05-11T09:13:15.612Z,46.92
2023-05-11T09:15:46.556Z,47.05
2023-05-11T09:18:17.391Z,46.88
2023-05-11T09:20:48.088Z,46.59
2023-05-11T09:23:19.056Z,46.31
2023-05-11T09:25:50.048Z,46.03
2023-05-11T09:28:25.398Z,46.01
2023-05-11T09:30:57.505Z,45.92
2023-05-11T09:33:28.203Z,45.88
2023-05-11T09:35:59.900Z,45.72
2023-05-11T09:38:30.583Z,45.18
2023-05-11T09:41:03.433Z,45.22
2023-05-11T09:43:34.229Z,45.11
2023-05-11T09:46:07.954Z,44.55
2023-05-11T09:48:38.775Z,44.09
2023-05-11T09:51:09.601Z,43.40
2023-05-11T09:53:43.311Z,43.68
2023-05-11T09:56:15.769Z,44.21
2023-05-11T09:58:48.501Z,44.00
2023-05-11T10:01:19.749Z,43.82
2023-05-11T10:04:02.618Z,43.24
2023-05-11T10:06:47.338Z,43.51
2023-05-11T10:09:18.652Z,43.50
2023-05-11T10:11:49.361Z,43.44
2023-05-11T10:14:20.170Z,42.95
2023-05-11T10:16:51.221Z,42.86
2023-05-11T10:19:22.005Z,42.75
2023-05-11T10:21:52.950Z,42.65
2023-05-11T10:24:23.598Z,42.35
2023-05-11T10:26:54.289Z,42.34
2023-05-11T10:29:25.016Z,42.36
2023-05-11T10:31:55.805Z,41.97
2023-05-11T10:34:26.977Z,41.84
2023-05-11T10:36:58.302Z,41.79
2023-05-11T10:39:29.147Z,41.64
2023-05-11T10:42:08.064Z,41.39
2023-05-11T10:44:44.350Z,41.30
2023-05-11T10:47:19.745Z,41.30
2023-05-11T10:50:04.681Z,41.28
2023-05-11T10:52:45.675Z,41.01
2023-05-11T10:55:18.315Z,41.15
2023-05-11T10:57:54.232Z,40.83
2023-05-11T11:00:47.961Z,40.53
2023-05-11T11:03:18.877Z,40.63
2023-05-11T11:05:50.064Z,40.65
2023-05-11T11:08:20.759Z,40.26
2023-05-11T11:10:51.698Z,40.10
2023-05-11T11:13:24.523Z,39.82
2023-05-11T11:16:16.619Z,39.81
2023-05-11T11:18:47.703Z,39.75
2023-05-11T11:21:18.354Z,39.87
2023-05-11T11:23:51.206Z,39.92
2023-05-11T11:26:41.896Z,39.66
2023-05-11T11:29:13.051Z,39.21
2023-05-11T11:31:43.818Z,39.29
2023-05-11T11:34:32.448Z,39.17
2023-05-11T11:37:04.054Z,39.27
2023-05-11T11:40:13.124Z,39.52
2023-05-11T11:42:45.251Z,39.45
2023-05-11T11:45:29.532Z,39.08
2023-05-11T11:48:22.584Z,38.99
2023-05-11T11:51:04.417Z,38.47
2023-05-11T11:54:07.006Z,38.28
2023-05-11T11:56:44.998Z,38.77
2023-05-11T11:59:16.485Z,38.21
2023-05-11T12:01:47.213Z,38.66
2023-05-11T12:04:34.278Z,38.79
2023-05-11T12:07:05.170Z,38.59
2023-05-11T12:09:37.047Z,38.29
2023-05-11T12:12:08.857Z,37.96
2023-05-11T12:14:39.448Z,37.77
2023-05-11T12:17:15.557Z,37.97
2023-05-11T12:19:46.715Z,38.12
2023-05-11T12:22:19.017Z,38.05
2023-05-11T12:24:49.727Z,38.01
2023-05-11T12:27:20.589Z,37.89
2023-05-11T12:29:51.856Z,37.72
2023-05-11T12:32:29.509Z,37.85
2023-05-11T12:35:01.628Z,37.52
2023-05-11T12:37:32.685Z,37.79
2023-05-11T12:40:03.485Z,37.51
2023-05-11T12:42:35.284Z,37.53
2023-05-11T12:45:06.751Z,37.67
2023-05-11T12:47:38.139Z,37.11
2023-05-11T12:50:09.998Z,37.06
2023-05-11T12:52:40.798Z,37.08
2023-05-11T12:55:11.910Z,36.81
2023-05-11T12:57:42.498Z,36.70
2023-05-11T13:00:14.901Z,36.73
2023-05-11T13:02:52.531Z,36.98
2023-05-11T13:05:26.479Z,36.73
2023-05-11T13:08:00.698Z,36.95
2023-05-11T13:10:31.854Z,36.82
2023-05-11T13:13:02.607Z,36.81
2023-05-11T13:15:33.879Z,37.06
2023-05-11T13:18:04.953Z,37.01
2023-05-11T13:20:35.821Z,37.13
2023-05-11T13:23:07.471Z,36.82
2023-05-11T13:25:51.869Z,37.07
2023-05-11T13:28:23.632Z,36.64
2023-05-11T13:30:59.536Z,36.48
2023-05-11T13:33:30.580Z,36.17
2023-05-11T13:36:01.354Z,36.19
2023-05-11T13:38:31.991Z,36.14
2023-05-11T13:41:02.627Z,36.17
2023-05-11T13:43:33.436Z,36.25
2023-05-11T13:46:05.141Z,35.91
2023-05-11T13:48:35.725Z,35.93
2023-05-11T13:51:06.514Z,36.11
2023-05-11T13:53:37.247Z,35.96
2023-05-11T13:56:07.857Z,36.23
2023-05-11T13:58:38.607Z,36.02
2023-05-11T14:01:09.410Z,35.97
2023-05-11T14:03:40.356Z,35.88
2023-05-11T14:06:11.084Z,35.74
2023-05-11T14:08:41.790Z,35.84
2023-05-11T14:11:12.945Z,35.88
2023-05-11T14:13:43.643Z,35.76
2023-05-11T14:16:15.146Z,35.81
2023-05-11T14:18:46.224Z,35.61
2023-05-11T14:21:17.279Z,35.58
2023-05-11T14:24:01.956Z,35.00
2023-05-11T14:26:38.453Z,34.83
2023-05-11T14:29:09.127Z,35.23
2023-05-11T14:31:40.427Z,35.33
2023-05-11T14:34:11.224Z,35.41
2023-05-11T14:36:41.818Z,35.43
2023-05-11T14:39:12.552Z,35.25
2023-05-11T14:41:43.423Z,35.14
2023-05-11T14:44:14.059Z,35.02
2023-05-11T14:46:44.725Z,34.95
2023-05-11T14:49:15.670Z,34.99
2023-05-11T14:51:46.254Z,35.14
2023-05-11T14:54:16.970Z,35.10
2023-05-11T14:56:53.675Z,35.07
2023-05-11T14:59:25.302Z,35.04
2023-05-11T15:01:56.056Z,35.12
2023-05-11T15:04:27.220Z,35.03
2023-05-11T15:06:57.752Z,35.03
2023-05-11T15:09:42.011Z,34.77
2023-05-11T15:12:15.077Z,34.92
2023-05-11T15:14:46.192Z,34.87
2023-05-11T15:17:16.893Z,34.72
2023-05-11T15:19:47.892Z,34.72
2023-05-11T15:22:19.330Z,34.83
2023-05-11T15:24:50.090Z,34.80
2023-05-11T15:27:20.829Z,34.63
2023-05-11T15:29:51.760Z,34.71
2023-05-11T15:32:23.276Z,34.74
2023-05-11T15:34:59.783Z,34.86
2023-05-11T15:37:31.175Z,34.89
2023-05-11T15:40:01.829Z,34.83
2023-05-11T15:42:32.532Z,34.87
2023-05-11T15:45:03.847Z,34.76
2023-05-11T15:47:34.606Z,34.71
2023-05-11T15:50:05.661Z,34.85
2023-05-11T15:52:36.331Z,34.91
2023-05-11T15:55:07.455Z,34.82
2023-05-11T15:57:38.245Z,34.86
2023-05-11T16:00:11.434Z,34.93
2023-05-11T16:02:42.962Z,35.05
2023-05-11T16:05:14.013Z,34.91
2023-05-11T16:07:44.706Z,35.08
2023-05-11T16:10:15.484Z,35.08
2023-05-11T16:12:46.289Z,35.06
2023-05-11T16:15:17.212Z,35.09
2023-05-11T16:17:48.759Z,35.07
2023-05-11T16:20:20.019Z,35.06
2023-05-11T16:22:50.801Z,35.13
2023-05-11T16:25:21.617Z,35.14
2023-05-11T16:27:52.774Z,35.21
2023-05-11T16:30:25.398Z,35.06
2023-05-11T16:32:56.460Z,35.12
2023-05-11T16:35:27.306Z,35.23
2023-05-11T16:37:59.843Z,35.26
2023-05-11T16:40:30.564Z,35.35
2023-05-11T16:43:01.489Z,35.30
2023-05-11T16:45:32.419Z,35.32
2023-05-11T16:48:03.112Z,35.29
2023-05-11T16:50:33.876Z,35.42
2023-05-11T16:53:04.730Z,35.46
2023-05-11T16:55:35.520Z,35.46
2023-05-11T16:58:06.192Z,35.59
2023-05-11T17:00:36.892Z,35.50
2023-05-11T17:03:07.678Z,35.57
2023-05-11T17:05:38.557Z,35.65
2023-05-11T17:08:09.242Z,35.69
2023-05-11T17:10:39.930Z,35.72
2023-05-11T17:13:10.455Z,35.74
2023-05-11T17:15:41.131Z,35.84
2023-05-11T17:18:11.921Z,35.93
2023-05-11T17:20:42.652Z,35.86
2023-05-11T17:23:13.264Z,35.89
2023-05-11T17:25:44.471Z,35.95
2023-05-11T17:28:15.121Z,36.01
2023-05-11T17:30:48.669Z,36.06
2023-05-11T17:33:20.067Z,36.07
2023-05-11T17:35:51.425Z,36.14
2023-05-11T17:38:22.473Z,36.22
2023-05-11T17:40:53.396Z,36.45
2023-05-11T17:43:24.178Z,36.30
2023-05-11T17:45:54.923Z,36.41
2023-05-11T17:48:27.645Z,36.49
2023-05-11T17:51:01.518Z,36.38
2023-05-11T17:53:32.583Z,36.56
2023-05-11T17:56:03.359Z,36.52
2023-05-11T17:58:34.030Z,36.60
2023-05-11T18:01:09.854Z,36.71
2023-05-11T18:03:41.032Z,36.81
2023-05-11T18:06:14.736Z,37.01
2023-05-11T18:08:45.564Z,36.90
2023-05-11T18:11:16.462Z,37.11
2023-05-11T18:13:47.328Z,37.18
2023-05-11T18:16:17.993Z,37.29
2023-05-11T18:18:48.713Z,37.42
2023-05-11T18:21:19.319Z,37.38
2023-05-11T18:23:50.196Z,37.52
2023-05-11T18:26:21.717Z,37.70
2023-05-11T18:28:54.679Z,37.67
2023-05-11T18:31:25.761Z,37.79
2023-05-11T18:33:56.907Z,37.81
2023-05-11T18:36:28.177Z,37.88
2023-05-11T18:38:58.902Z,38.10
2023-05-11T18:41:29.486Z,38.02
2023-05-11T18:44:00.347Z,38.22
2023-05-11T18:46:31.099Z,38.21
2023-05-11T18:49:01.535Z,38.34
2023-05-11T18:51:32.755Z,38.42
2023-05-11T18:54:03.711Z,38.42
2023-05-11T18:56:34.387Z,38.57
2023-05-11T18:59:05.186Z,38.63
2023-05-11T19:01:47.009Z,38.73
2023-05-11T19:04:20.469Z,38.73
2023-05-11T19:06:51.079Z,38.84
2023-05-11T19:09:22.356Z,38.87
2023-05-11T19:11:53.155Z,38.80
2023-05-11T19:14:23.699Z,38.95
2023-05-11T19:16:54.673Z,39.02
2023-05-11T19:19:25.251Z,38.98
2023-05-11T19:21:56.543Z,39.24
2023-05-11T19:24:27.691Z,39.13
2023-05-11T19:27:06.740Z,39.21
2023-05-11T19:29:47.042Z,39.30
2023-05-11T19:32:19.705Z,39.42
2023-05-11T19:34:50.361Z,39.60
2023-05-11T19:37:21.663Z,39.58
2023-05-11T19:39:52.973Z,39.61
2023-05-11T19:42:38.422Z,39.69
2023-05-11T19:45:11.911Z,39.92
2023-05-11T19:47:42.812Z,39.86
2023-05-11T19:50:14.712Z,39.95
2023-05-11T19:52:45.381Z,40.01
2023-05-11T19:55:16.200Z,39.99
2023-05-11T19:57:46.960Z,40.15
2023-05-11T20:00:20.868Z,40.21
2023-05-11T20:02:51.931Z,40.36
2023-05-11T20:05:24.166Z,40.39
2023-05-11T20:07:54.836Z,40.48
2023-05-11T20:10:25.546Z,40.55
2023-05-11T20:12:57.107Z,40.63
2023-05-11T20:15:27.819Z,40.64
2023-05-11T20:18:00.819Z,40.73
2023-05-11T20:20:33.109Z,40.74
2023-05-11T20:23:03.850Z,40.88
2023-05-11T20:25:34.673Z,40.97
2023-05-11T20:28:05.436Z,41.00
2023-05-11T20:30:36.475Z,40.90
2023-05-11T20:35:41.387Z,41.08
2023-05-11T20:38:14.427Z,41.19
2023-05-11T20:40:45.070Z,41.23
2023-05-11T20:43:16.844Z,41.33
2023-05-11T20:45:47.554Z,41.34
2023-05-11T20:48:25.968Z,41.49
2023-05-11T20:51:06.981Z,41.49
2023-05-11T20:53:37.957Z,41.53
2023-05-11T20:56:12.709Z,41.64
2023-05-11T20:58:43.329Z,41.67
2023-05-11T21:01:14.142Z,41.65
2023-05-11T21:03:44.739Z,41.83
2023-05-11T21:06:15.946Z,41.90
2023-05-11T21:08:46.686Z,41.94
2023-05-11T21:11:17.334Z,42.01
2023-05-11T21:13:48.807Z,42.06
2023-05-11T21:16:19.494Z,42.23
2023-05-11T21:18:50.211Z,42.25
2023-05-11T21:21:20.872Z,42.31
2023-05-11T21:23:51.553Z,42.31
2023-05-11T21:26:22.237Z,42.38
2023-05-11T21:28:53.086Z,42.41
2023-05-11T21:31:24.036Z,42.53
2023-05-11T21:33:54.739Z,42.60
2023-05-11T21:36:25.404Z,42.62
2023-05-11T21:38:56.363Z,42.77
2023-05-11T21:41:27.119Z,42.67
2023-05-11T21:43:59.781Z,42.75
2023-05-11T21:46:30.437Z,42.73
2023-05-11T21:49:00.975Z,42.86
2023-05-11T21:51:32.992Z,42.88
2023-05-11T21:54:04.014Z,42.91
2023-05-11T21:56:34.691Z,42.94
2023-05-11T21:59:05.456Z,42.89
2023-05-11T22:01:36.324Z,42.89
2023-05-11T22:04:07.389Z,42.98
2023-05-11T22:06:38.407Z,42.86
2023-05-11T22:09:09.129Z,43.06
2023-05-11T22:11:40.642Z,43.07
2023-05-11T22:14:11.376Z,43.19
2023-05-11T22:16:42.362Z,43.27
2023-05-11T22:19:14.937Z,43.27
2023-05-11T22:21:45.682Z,43.34
2023-05-11T22:24:17.325Z,43.35
2023-05-11T22:26:48.573Z,43.31
2023-05-11T22:29:20.577Z,43.39
2023-05-11T22:31:52.032Z,43.40
2023-05-11T22:34:24.469Z,43.47
2023-05-11T22:36:55.662Z,43.50
2023-05-11T22:39:27.585Z,43.54
2023-05-11T22:41:58.250Z,43.57
2023-05-11T22:44:29.880Z,43.70
2023-05-11T22:47:03.282Z,43.64
2023-05-11T22:49:35.269Z,43.60
2023-05-11T22:52:06.339Z,43.77
2023-05-11T22:54:37.303Z,43.81
2023-05-11T22:57:11.637Z,43.84
2023-05-11T22:59:43.282Z,43.87
2023-05-11T23:02:14.985Z,43.88
2023-05-11T23:04:46.268Z,43.95
2023-05-11T23:07:17.956Z,44.09
2023-05-11T23:09:52.688Z,44.17
2023-05-11T23:12:23.989Z,44.18
2023-05-11T23:14:56.308Z,44.31
2023-05-11T23:17:28.355Z,44.23
2023-05-11T23:20:00.358Z,44.44
2023-05-11T23:30:34.649Z,44.63
2023-05-11T23:33:05.227Z,44.58
2023-05-11T23:35:35.897Z,44.70
2023-05-11T23:38:06.588Z,44.78
2023-05-11T23:40:38.806Z,44.86
2023-05-11T23:43:09.609Z,44.98
2023-05-11T23:45:40.319Z,44.96
2023-05-11T23:48:11.501Z,45.09
2023-05-11T23:50:42.218Z,45.12
2023-05-11T23:53:13.318Z,45.14
2023-05-11T23:55:43.917Z,45.47
2023-05-11T23:58:14.505Z,45.38
